Time;durP1;ratioP1;P1;durP2;ratioP2;P2;SDS_P1;SDS_P2;PMS_P1;PMS_P2;Temp;Humidity;BMP_temperature;BMP_pressure;BME280_temperature;BME280_humidity;BME280_pressure;Samples;Min_cycle;Max_cycle;Signal;HPM_P1;HPM_P2
2024/01/09 00:01:51;;;;;;;26.03;15.20;;;;;-9.70;94469.00;;;;7400660;19;20126;-76
2024/01/09 00:04:26;;;;;;;26.50;14.43;;;;;-9.70;94454.00;;;;7404848;19;20146;-79
2024/01/09 00:07:00;;;;;;;27.40;14.63;;;;;-9.80;94458.00;;;;7407357;19;20603;-80
2024/01/09 00:09:35;;;;;;;25.60;15.40;;;;;-9.80;94459.00;;;;7406793;19;20138;-80
2024/01/09 00:12:09;;;;;;;26.47;15.10;;;;;-9.80;94458.00;;;;7408532;19;20588;-79
2024/01/09 00:14:36;;;;;;;28.47;14.77;;;;;-9.90;94453.00;;;;7409083;19;20150;-79
2024/01/09 00:17:11;;;;;;;28.40;15.57;;;;;-9.80;94458.00;;;;7408293;19;20390;-79
2024/01/09 00:19:51;;;;;;;29.03;15.43;;;;;-9.90;94452.00;;;;7406972;19;20592;-79
2024/01/09 00:22:19;;;;;;;28.27;15.53;;;;;-9.80;94464.00;;;;7404696;19;20148;-79
2024/01/09 00:24:53;;;;;;;26.20;14.83;;;;;-9.90;94463.00;;;;7408943;19;20180;-78
2024/01/09 00:27:21;;;;;;;31.77;16.37;;;;;-9.90;94463.00;;;;7406210;19;20163;-80
2024/01/09 00:29:55;;;;;;;25.07;14.87;;;;;-9.90;94453.00;;;;7404566;19;20161;-79
2024/01/09 00:32:22;;;;;;;27.40;15.83;;;;;-9.90;94463.00;;;;7406639;19;20138;-79
2024/01/09 00:34:57;;;;;;;28.63;15.87;;;;;-10.00;94454.00;;;;7407535;19;20180;-79
2024/01/09 00:37:25;;;;;;;29.93;15.73;;;;;-9.90;94466.00;;;;7407099;19;20480;-78
2024/01/09 00:39:59;;;;;;;30.43;15.03;;;;;-10.00;94452.00;;;;7405619;19;20149;-78
2024/01/09 00:42:26;;;;;;;30.73;16.23;;;;;-10.00;94455.00;;;;7405092;19;20192;-79
2024/01/09 00:45:01;;;;;;;26.30;14.70;;;;;-10.00;94459.00;;;;7405068;19;20133;-79
2024/01/09 00:47:35;;;;;;;30.90;15.73;;;;;-10.10;94465.00;;;;7407846;19;20149;-79
2024/01/09 00:50:09;;;;;;;30.90;16.00;;;;;-10.10;94454.00;;;;7408155;19;20148;-79
2024/01/09 00:52:44;;;;;;;27.40;14.90;;;;;-10.00;94460.00;;;;7407875;19;20151;-79
2024/01/09 00:55:18;;;;;;;29.77;16.27;;;;;-10.10;94463.00;;;;7408312;19;20170;-78
2024/01/09 00:57:53;;;;;;;29.53;15.07;;;;;-10.00;94454.00;;;;7406516;19;20553;-80
2024/01/09 01:00:28;;;;;;;28.57;15.47;;;;;-10.00;94468.00;;;;7405524;19;20141;-80
2024/01/09 01:02:56;;;;;;;29.03;16.40;;;;;-10.00;94463.00;;;;7406909;19;20583;-79
2024/01/09 01:05:33;;;;;;;27.47;15.13;;;;;-10.20;94468.00;;;;7410934;19;20151;-78
2024/01/09 01:08:07;;;;;;;27.87;15.83;;;;;-10.20;94469.00;;;;7408660;19;20149;-79
2024/01/09 01:10:41;;;;;;;28.00;15.00;;;;;-10.20;94465.00;;;;7410539;19;20474;-78
2024/01/09 01:13:08;;;;;;;31.13;15.93;;;;;-10.10;94462.00;;;;7407510;19;20608;-79
2024/01/09 01:15:42;;;;;;;24.67;15.30;;;;;-10.20;94473.00;;;;7404117;19;20124;-78
2024/01/09 01:18:17;;;;;;;34.57;16.27;;;;;-10.10;94474.00;;;;7404741;19;20126;-78
2024/01/09 01:20:59;;;;;;;28.63;15.77;;;;;-10.20;94465.00;;;;7405477;19;20165;-80
2024/01/09 01:23:27;;;;;;;30.57;16.30;;;;;-10.20;94471.00;;;;7402830;19;20145;-79
2024/01/09 01:26:02;;;;;;;25.27;15.17;;;;;-10.20;94473.00;;;;7400400;19;20198;-77
2024/01/09 01:28:29;;;;;;;29.80;15.17;;;;;-10.20;94478.00;;;;7400269;19;20210;-75
2024/01/09 01:31:05;;;;;;;27.63;15.77;;;;;-10.30;94469.00;;;;7400741;19;20142;-74
2024/01/09 01:33:39;;;;;;;31.00;16.90;;;;;-10.20;94467.00;;;;7398498;19;20157;-76
2024/01/09 01:36:15;;;;;;;30.17;16.03;;;;;-10.20;94470.00;;;;7399065;19;20626;-75
2024/01/09 01:38:50;;;;;;;35.40;16.27;;;;;-10.40;94473.00;;;;7399976;19;20134;-74
2024/01/09 01:41:17;;;;;;;29.37;15.87;;;;;-10.30;94475.00;;;;7395805;19;20149;-75
2024/01/09 01:43:52;;;;;;;27.93;14.77;;;;;-10.30;94465.00;;;;7397522;19;20173;-75
2024/01/09 01:46:20;;;;;;;27.63;15.80;;;;;-10.30;94468.00;;;;7399697;19;20163;-75
2024/01/09 01:48:55;;;;;;;30.80;15.57;;;;;-10.30;94478.00;;;;7400347;19;20500;-75
2024/01/09 01:51:23;;;;;;;26.07;15.43;;;;;-10.40;94471.00;;;;7398460;19;20153;-75
2024/01/09 01:53:50;;;;;;;29.33;16.10;;;;;-10.30;94474.00;;;;7398420;19;20617;-76
2024/01/09 01:56:25;;;;;;;30.53;16.77;;;;;-10.40;94479.00;;;;7397491;19;20148;-75
2024/01/09 01:58:53;;;;;;;30.13;15.63;;;;;-10.40;94467.00;;;;7399277;19;20604;-74
2024/01/09 02:01:28;;;;;;;28.20;16.43;;;;;-10.40;94468.00;;;;7398599;19;20624;-76
2024/01/09 02:03:56;;;;;;;33.07;15.90;;;;;-10.40;94472.00;;;;7396537;19;20157;-76
2024/01/09 02:06:30;;;;;;;26.10;15.00;;;;;-10.40;94466.00;;;;7398531;19;20140;-77
2024/01/09 02:08:58;;;;;;;28.20;15.70;;;;;-10.50;94469.00;;;;7397217;19;20142;-74
2024/01/09 02:11:33;;;;;;;30.50;17.00;;;;;-10.50;94465.00;;;;7397682;19;20144;-74
2024/01/09 02:14:01;;;;;;;28.40;16.07;;;;;-10.50;94468.00;;;;7396747;19;20479;-77
2024/01/09 02:16:35;;;;;;;25.73;15.20;;;;;-10.50;94468.00;;;;7399371;19;20164;-75
2024/01/09 02:19:15;;;;;;;30.37;15.77;;;;;-10.50;94473.00;;;;7395510;19;20160;-76
2024/01/09 02:21:43;;;;;;;31.83;16.13;;;;;-10.50;94463.00;;;;7397748;19;20143;-75
2024/01/09 02:24:18;;;;;;;29.67;17.17;;;;;-10.60;94464.00;;;;7395965;19;20196;-75
2024/01/09 02:26:57;;;;;;;30.47;16.93;;;;;-10.60;94458.00;;;;7397067;19;20168;-75
2024/01/09 02:29:35;;;;;;;30.17;16.03;;;;;-10.60;94464.00;;;;7396246;19;20140;-74
2024/01/09 02:32:03;;;;;;;31.07;15.97;;;;;-10.70;94456.00;;;;7396500;19;20209;-74
2024/01/09 02:34:33;;;;;;;32.73;15.77;;;;;-10.70;94459.00;;;;7397319;19;20168;-75
2024/01/09 02:37:07;;;;;;;32.37;15.87;;;;;-10.70;94465.00;;;;7397406;19;20535;-74
2024/01/09 02:39:34;;;;;;;28.50;15.50;;;;;-10.60;94467.00;;;;7398619;19;20470;-76
2024/01/09 02:42:09;;;;;;;32.03;17.07;;;;;-10.70;94464.00;;;;7398251;19;20135;-75
2024/01/09 02:44:43;;;;;;;30.60;16.87;;;;;-10.70;94455.00;;;;7395549;19;20153;-78
2024/01/09 02:47:17;;;;;;;28.37;16.00;;;;;-10.70;94458.00;;;;7400417;19;20631;-78
2024/01/09 02:49:51;;;;;;;29.33;16.43;;;;;-10.70;94457.00;;;;7398470;19;20521;-80
2024/01/09 02:52:19;;;;;;;27.80;15.87;;;;;-10.80;94460.00;;;;7404585;19;20154;-79
2024/01/09 02:54:53;;;;;;;28.17;15.43;;;;;-10.70;94450.00;;;;7404584;19;20184;-78
2024/01/09 02:57:20;;;;;;;28.23;15.33;;;;;-10.70;94445.00;;;;7404762;19;20667;-79
2024/01/09 02:59:55;;;;;;;31.77;17.43;;;;;-10.60;94442.00;;;;7403214;19;20149;-79
2024/01/09 03:02:29;;;;;;;31.47;16.77;;;;;-10.70;94443.00;;;;7403324;19;20228;-79
2024/01/09 03:05:05;;;;;;;30.17;16.77;;;;;-10.60;94447.00;;;;7403733;19;20147;-79
2024/01/09 03:07:33;;;;;;;30.77;16.27;;;;;-10.70;94444.00;;;;7404397;19;20150;-79
2024/01/09 03:10:09;;;;;;;32.73;16.33;;;;;-10.70;94443.00;;;;7404096;19;20165;-79
2024/01/09 03:12:37;;;;;;;31.63;16.17;;;;;-10.70;94451.00;;;;7404367;19;20145;-80
2024/01/09 03:15:11;;;;;;;29.87;15.43;;;;;-10.60;94444.00;;;;7403530;19;20154;-79
2024/01/09 03:17:38;;;;;;;29.60;16.10;;;;;-10.70;94451.00;;;;7404901;19;20133;-80
2024/01/09 03:20:19;;;;;;;28.97;16.43;;;;;-10.60;94437.00;;;;7400692;19;20168;-80
2024/01/09 03:22:48;;;;;;;30.47;16.70;;;;;-10.70;94448.00;;;;7403154;19;20159;-78
2024/01/09 03:25:26;;;;;;;30.50;16.17;;;;;-10.70;94446.00;;;;7403234;19;20509;-79
2024/01/09 03:28:01;;;;;;;29.00;15.43;;;;;-10.60;94439.00;;;;7402213;19;20605;-79
2024/01/09 03:30:35;;;;;;;28.67;15.17;;;;;-10.70;94440.00;;;;7402709;19;20148;-78
2024/01/09 03:33:02;;;;;;;26.70;15.83;;;;;-10.60;94437.00;;;;7402329;19;20601;-78
2024/01/09 03:35:30;;;;;;;29.10;15.47;;;;;-10.60;94435.00;;;;7402784;19;20159;-78
2024/01/09 03:38:05;;;;;;;29.70;15.17;;;;;-10.70;94424.00;;;;7402867;19;20512;-78
2024/01/09 03:40:39;;;;;;;27.77;14.40;;;;;-10.70;94429.00;;;;7402710;19;20632;-78
2024/01/09 03:43:13;;;;;;;33.30;15.40;;;;;-10.70;94441.00;;;;7400382;19;20236;-77
2024/01/09 03:45:41;;;;;;;29.67;16.37;;;;;-10.50;94436.00;;;;7401872;19;20148;-80
2024/01/09 03:48:08;;;;;;;33.63;16.00;;;;;-10.70;94445.00;;;;7401904;19;20144;-79
2024/01/09 03:50:43;;;;;;;32.03;16.27;;;;;-10.70;94434.00;;;;7401760;19;20149;-77
2024/01/09 03:53:17;;;;;;;31.47;16.67;;;;;-10.80;94443.00;;;;7402388;19;20125;-78
2024/01/09 03:55:51;;;;;;;27.97;15.43;;;;;-10.80;94444.00;;;;7409466;19;20137;-78
2024/01/09 03:58:25;;;;;;;35.50;16.13;;;;;-10.70;94440.00;;;;7410425;19;20148;-79
2024/01/09 04:00:59;;;;;;;26.63;14.43;;;;;-10.80;94448.00;;;;7409104;19;20165;-79
2024/01/09 04:03:33;;;;;;;26.97;14.47;;;;;-10.70;94436.00;;;;7406285;19;20657;-80
2024/01/09 04:06:07;;;;;;;28.17;15.57;;;;;-10.70;94432.00;;;;7410951;19;20648;-80
2024/01/09 04:08:35;;;;;;;31.13;15.77;;;;;-10.70;94429.00;;;;7410403;19;20134;-79
2024/01/09 04:11:09;;;;;;;29.03;15.63;;;;;-10.70;94432.00;;;;7409764;19;20168;-80
2024/01/09 04:13:43;;;;;;;27.17;14.77;;;;;-10.80;94439.00;;;;7412740;19;20132;-80
2024/01/09 04:16:19;;;;;;;28.83;15.20;;;;;-10.80;94425.00;;;;7407820;19;20157;-77
2024/01/09 04:18:53;;;;;;;28.27;15.73;;;;;-10.70;94419.00;;;;7405853;19;20206;-79
2024/01/09 04:21:28;;;;;;;31.17;16.30;;;;;-10.80;94434.00;;;;7406249;19;20130;-79
2024/01/09 04:23:56;;;;;;;24.17;13.00;;;;;-10.80;94433.00;;;;7406549;19;20479;-78
2024/01/09 04:26:30;;;;;;;30.37;15.43;;;;;-10.80;94422.00;;;;7406929;19;20615;-79
2024/01/09 04:29:05;;;;;;;28.33;15.20;;;;;-10.70;94421.00;;;;7405217;19;20133;-79
2024/01/09 04:31:39;;;;;;;31.33;14.63;;;;;-10.70;94422.00;;;;7408166;19;20129;-79
2024/01/09 04:34:13;;;;;;;29.47;15.00;;;;;-10.70;94422.00;;;;7406999;19;20156;-80
2024/01/09 04:36:47;;;;;;;34.50;15.53;;;;;-10.60;94420.00;;;;7406585;19;20141;-79
2024/01/09 04:39:22;;;;;;;30.90;15.67;;;;;-10.70;94417.00;;;;7405136;19;20137;-79
2024/01/09 04:41:49;;;;;;;27.93;14.57;;;;;-10.70;94426.00;;;;7407454;19;20475;-79
2024/01/09 04:44:30;;;;;;;31.43;14.97;;;;;-10.60;94415.00;;;;7405657;19;20148;-79
2024/01/09 04:46:59;;;;;;;28.47;14.83;;;;;-10.60;94418.00;;;;7406539;19;20144;-79
2024/01/09 04:49:34;;;;;;;25.43;14.90;;;;;-10.70;94424.00;;;;7407998;19;20133;-79
2024/01/09 04:52:01;;;;;;;26.80;14.13;;;;;-10.70;94423.00;;;;7406780;19;20209;-79
2024/01/09 04:54:29;;;;;;;27.17;14.10;;;;;-10.70;94412.00;;;;7403250;19;20608;-79
2024/01/09 04:57:03;;;;;;;27.37;14.17;;;;;-10.70;94421.00;;;;7408266;19;20133;-79
2024/01/09 04:59:31;;;;;;;26.63;14.27;;;;;-10.70;94420.00;;;;7408247;19;20145;-80
2024/01/09 05:02:05;;;;;;;27.77;13.87;;;;;-10.70;94415.00;;;;7407219;19;20164;-80
2024/01/09 05:04:33;;;;;;;29.53;15.30;;;;;-10.70;94416.00;;;;7405618;19;20161;-80
2024/01/09 05:07:07;;;;;;;27.33;14.27;;;;;-10.70;94423.00;;;;7404374;19;20140;-80
2024/01/09 05:09:34;;;;;;;27.57;13.67;;;;;-10.70;94416.00;;;;7405445;19;20156;-80
2024/01/09 05:12:09;;;;;;;32.17;13.67;;;;;-10.70;94422.00;;;;7405670;19;20160;-79
2024/01/09 05:14:37;;;;;;;27.23;14.03;;;;;-10.80;94414.00;;;;7404364;19;20605;-80
2024/01/09 05:17:04;;;;;;;26.93;14.13;;;;;-10.60;94419.00;;;;7406582;19;20596;-81
2024/01/09 05:19:52;;;;;;;26.67;14.40;;;;;-10.70;94416.00;;;;7400961;19;20652;-80
2024/01/09 05:22:26;;;;;;;27.07;14.07;;;;;-10.60;94417.00;;;;7404447;19;20765;-79
2024/01/09 05:25:02;;;;;;;28.33;14.30;;;;;-10.60;94418.00;;;;7399050;19;20627;-79
2024/01/09 05:27:37;;;;;;;24.20;12.83;;;;;-10.70;94418.00;;;;7407327;19;20608;-80
2024/01/09 05:30:08;;;;;;;25.17;14.37;;;;;-10.70;94425.00;;;;7404262;19;20145;-79
2024/01/09 05:32:43;;;;;;;26.27;13.10;;;;;-10.70;94434.00;;;;7406679;19;20136;-79
2024/01/09 05:35:17;;;;;;;24.70;13.03;;;;;-10.80;94435.00;;;;7404492;19;20145;-79
2024/01/09 05:37:45;;;;;;;28.83;13.73;;;;;-10.70;94441.00;;;;7405081;19;20491;-79
2024/01/09 05:40:24;;;;;;;27.20;13.20;;;;;-10.70;94435.00;;;;7409194;19;20632;-79
2024/01/09 05:42:59;;;;;;;25.07;12.60;;;;;-10.90;94424.00;;;;7408467;19;20172;-79
2024/01/09 05:45:26;;;;;;;26.47;14.60;;;;;-10.80;94420.00;;;;7407003;19;20145;-80
2024/01/09 05:47:54;;;;;;;28.40;15.03;;;;;-10.80;94440.00;;;;7405850;19;20173;-78
2024/01/09 05:50:28;;;;;;;27.83;13.60;;;;;-10.80;94441.00;;;;7384521;19;20487;-79
2024/01/09 05:53:03;;;;;;;25.63;13.60;;;;;-10.90;94436.00;;;;7393498;19;20132;-79
2024/01/09 05:55:33;;;;;;;24.60;13.07;;;;;-10.90;94423.00;;;;7389852;19;20169;-80
2024/01/09 05:58:08;;;;;;;26.20;13.73;;;;;-10.80;94438.00;;;;7391990;19;20132;-78
2024/01/09 06:00:35;;;;;;;22.17;12.70;;;;;-10.80;94439.00;;;;7391200;19;20129;-79
2024/01/09 06:03:10;;;;;;;26.30;12.93;;;;;-10.90;94435.00;;;;7390570;19;20128;-80
2024/01/09 06:05:38;;;;;;;24.93;13.70;;;;;-10.80;94446.00;;;;7389861;19;20479;-79
2024/01/09 06:08:12;;;;;;;29.30;14.07;;;;;-10.80;94441.00;;;;7390646;19;20131;-79
2024/01/09 06:10:39;;;;;;;22.83;13.17;;;;;-10.80;94446.00;;;;7392126;19;20133;-78
2024/01/09 06:13:14;;;;;;;26.63;13.43;;;;;-10.80;94455.00;;;;7391292;19;20488;-80
2024/01/09 06:15:41;;;;;;;26.23;12.97;;;;;-10.80;94437.00;;;;7388696;19;20145;-79
2024/01/09 06:18:16;;;;;;;25.93;12.67;;;;;-10.90;94439.00;;;;7388879;19;20151;-79
2024/01/09 06:20:51;;;;;;;27.07;13.63;;;;;-10.90;94446.00;;;;7387183;19;20186;-79
2024/01/09 06:23:26;;;;;;;25.60;13.90;;;;;-10.80;94446.00;;;;7387699;19;20149;-79
2024/01/09 06:26:00;;;;;;;25.80;13.03;;;;;-10.90;94443.00;;;;7384852;19;20152;-79
2024/01/09 06:28:35;;;;;;;23.87;12.60;;;;;-11.00;94443.00;;;;7393621;19;20149;-79
2024/01/09 06:31:02;;;;;;;25.50;13.60;;;;;-10.90;94444.00;;;;7394530;19;20204;-80
2024/01/09 06:33:37;;;;;;;28.13;13.77;;;;;-10.90;94443.00;;;;7394482;19;20158;-80
2024/01/09 06:36:11;;;;;;;27.93;14.10;;;;;-10.90;94444.00;;;;7394519;19;20141;-79
2024/01/09 06:38:39;;;;;;;22.50;12.23;;;;;-10.90;94440.00;;;;7394111;19;20543;-79
2024/01/09 06:41:14;;;;;;;27.47;13.23;;;;;-10.90;94434.00;;;;7395077;19;20167;-79
2024/01/09 06:43:42;;;;;;;23.53;12.07;;;;;-10.90;94435.00;;;;7393658;19;20183;-79
2024/01/09 06:46:16;;;;;;;26.23;13.97;;;;;-10.90;94439.00;;;;7393909;19;20188;-78
2024/01/09 06:48:44;;;;;;;23.77;12.73;;;;;-10.90;94455.00;;;;7393568;19;20153;-78
2024/01/09 06:51:12;;;;;;;24.73;13.13;;;;;-10.80;94449.00;;;;7393310;19;20137;-79
2024/01/09 06:53:47;;;;;;;25.40;13.83;;;;;-10.90;94444.00;;;;7392570;19;20144;-79
2024/01/09 06:56:15;;;;;;;27.63;13.57;;;;;-10.90;94447.00;;;;7392536;19;20517;-80
2024/01/09 06:58:49;;;;;;;27.20;13.23;;;;;-11.00;94446.00;;;;7396172;19;20148;-80
2024/01/09 07:01:23;;;;;;;26.00;13.30;;;;;-10.90;94445.00;;;;7393692;19;20149;-78
2024/01/09 07:03:57;;;;;;;25.33;13.50;;;;;-11.00;94452.00;;;;7393579;19;20227;-78
2024/01/09 07:06:32;;;;;;;26.80;13.60;;;;;-10.90;94453.00;;;;7392382;19;20505;-79
2024/01/09 07:09:08;;;;;;;23.47;12.73;;;;;-11.00;94453.00;;;;7392780;19;20135;-79
2024/01/09 07:11:36;;;;;;;29.83;13.30;;;;;-10.90;94447.00;;;;7392997;19;20153;-80
2024/01/09 07:14:11;;;;;;;27.70;13.50;;;;;-10.90;94454.00;;;;7394470;19;20148;-79
2024/01/09 07:16:40;;;;;;;27.43;14.10;;;;;-10.90;94467.00;;;;7394000;19;20148;-79
2024/01/09 07:19:20;;;;;;;24.83;14.17;;;;;-10.90;94453.00;;;;7394461;19;20174;-79
2024/01/09 07:21:56;;;;;;;25.53;13.17;;;;;-10.80;94460.00;;;;7395258;19;20540;-79
2024/01/09 07:24:30;;;;;;;28.23;14.47;;;;;-10.70;94464.00;;;;7395371;19;20186;-77
2024/01/09 07:26:58;;;;;;;25.27;13.47;;;;;-10.90;94474.00;;;;7393719;19;20506;-75
2024/01/09 07:29:33;;;;;;;23.83;13.20;;;;;-10.60;94467.00;;;;7393132;19;20156;-75
2024/01/09 07:32:08;;;;;;;24.83;13.40;;;;;-10.80;94472.00;;;;7394371;19;20128;-75
2024/01/09 07:34:42;;;;;;;26.83;12.77;;;;;-10.70;94463.00;;;;7393428;19;20644;-75
2024/01/09 07:37:10;;;;;;;29.47;13.27;;;;;-10.80;94460.00;;;;7391717;19;20152;-75
2024/01/09 07:39:44;;;;;;;26.60;13.80;;;;;-10.60;94464.00;;;;7392203;19;20144;-76
2024/01/09 07:42:13;;;;;;;27.83;13.53;;;;;-10.40;94465.00;;;;7391694;19;20643;-75
2024/01/09 07:44:47;;;;;;;25.27;12.90;;;;;-10.40;94457.00;;;;7390305;19;20135;-76
2024/01/09 07:47:18;;;;;;;25.37;12.83;;;;;-10.30;94464.00;;;;7391473;19;20152;-76
2024/01/09 07:49:52;;;;;;;26.80;13.50;;;;;-9.90;94457.00;;;;7391839;19;20160;-77
2024/01/09 07:52:20;;;;;;;24.63;12.93;;;;;-9.80;94470.00;;;;7391896;19;20143;-76
2024/01/09 07:54:54;;;;;;;25.23;13.20;;;;;-9.80;94463.00;;;;7390959;19;20597;-76
2024/01/09 07:57:24;;;;;;;25.60;13.10;;;;;-9.80;94474.00;;;;7391526;19;20616;-76
2024/01/09 07:59:58;;;;;;;24.47;12.57;;;;;-9.70;94471.00;;;;7391964;19;20483;-76
2024/01/09 08:02:33;;;;;;;26.83;12.90;;;;;-9.40;94464.00;;;;7390974;19;20178;-76
2024/01/09 08:05:07;;;;;;;24.07;13.20;;;;;-9.20;94471.00;;;;7391659;19;20669;-76
2024/01/09 08:07:42;;;;;;;26.57;12.63;;;;;-9.20;94462.00;;;;7390353;19;20135;-76
2024/01/09 08:10:10;;;;;;;26.93;13.33;;;;;-9.00;94464.00;;;;7390956;19;20173;-75
2024/01/09 08:12:44;;;;;;;23.90;12.93;;;;;-8.70;94470.00;;;;7389773;19;20151;-77
2024/01/09 08:15:18;;;;;;;22.70;12.23;;;;;-8.40;94473.00;;;;7391559;19;20152;-75
2024/01/09 08:17:58;;;;;;;25.10;13.30;;;;;-8.30;94464.00;;;;7390381;19;20149;-76
2024/01/09 08:20:33;;;;;;;25.27;12.63;;;;;-8.00;94466.00;;;;7389959;19;20178;-78
2024/01/09 08:23:10;;;;;;;21.97;12.67;;;;;-7.80;94469.00;;;;7389764;19;20155;-75
2024/01/09 08:25:37;;;;;;;25.40;12.43;;;;;-7.70;94468.00;;;;7389483;19;20159;-76
2024/01/09 08:28:12;;;;;;;21.50;11.47;;;;;-7.70;94469.00;;;;7388148;19;20134;-77
2024/01/09 08:30:46;;;;;;;23.50;11.93;;;;;-7.50;94458.00;;;;7387634;19;20152;-76
2024/01/09 08:33:20;;;;;;;27.50;12.43;;;;;-7.70;94465.00;;;;7389935;19;20156;-76
2024/01/09 08:35:59;;;;;;;22.83;12.00;;;;;-7.40;94462.00;;;;7400365;19;20129;-78
2024/01/09 08:38:27;;;;;;;20.20;11.07;;;;;-7.70;94473.00;;;;7398549;19;20145;-77
2024/01/09 08:40:56;;;;;;;21.77;11.70;;;;;-6.80;94475.00;;;;7400386;19;20129;-78
2024/01/09 08:43:30;;;;;;;17.73;10.60;;;;;-7.40;94466.00;;;;7404848;19;20511;-80
2024/01/09 08:45:57;;;;;;;20.97;11.50;;;;;-7.00;94475.00;;;;7405656;19;20152;-79
2024/01/09 08:48:32;;;;;;;18.77;11.13;;;;;-7.00;94450.00;;;;7406375;19;20129;-79
2024/01/09 08:51:10;;;;;;;18.80;11.30;;;;;-7.10;94461.00;;;;7398431;19;20152;-80
2024/01/09 08:53:44;;;;;;;20.00;11.13;;;;;-6.50;94450.00;;;;7404569;19;20132;-79
2024/01/09 08:56:19;;;;;;;17.17;10.03;;;;;-6.20;94449.00;;;;7405529;19;20172;-78
2024/01/09 08:58:46;;;;;;;26.80;11.37;;;;;-5.80;94455.00;;;;7398320;19;20176;-80
2024/01/09 09:01:22;;;;;;;21.83;11.47;;;;;-5.70;94451.00;;;;7393054;19;20144;-81
2024/01/09 09:03:57;;;;;;;23.33;11.93;;;;;-6.10;94444.00;;;;7401058;19;20151;-79
2024/01/09 09:06:31;;;;;;;20.93;11.53;;;;;-5.60;94446.00;;;;7404221;19;20125;-81
2024/01/09 09:09:05;;;;;;;19.47;11.17;;;;;-5.40;94459.00;;;;7394441;19;20224;-81
2024/01/09 09:11:39;;;;;;;20.43;11.27;;;;;-5.60;94460.00;;;;7394130;19;20639;-82
2024/01/09 09:14:13;;;;;;;20.67;10.97;;;;;-5.80;94469.00;;;;7400066;19;20173;-80
2024/01/09 09:16:41;;;;;;;20.40;10.97;;;;;-6.00;94458.00;;;;7407182;19;20149;-79
2024/01/09 09:19:17;;;;;;;19.57;10.90;;;;;-6.10;94464.00;;;;7404162;19;20196;-78
2024/01/09 09:21:52;;;;;;;17.90;11.13;;;;;-6.30;94477.00;;;;7407569;19;20145;-80
2024/01/09 09:24:27;;;;;;;21.53;11.10;;;;;-5.50;94467.00;;;;7408782;19;20140;-78
2024/01/09 09:27:01;;;;;;;21.17;11.43;;;;;-6.30;94471.00;;;;7407712;19;20145;-78
2024/01/09 09:29:29;;;;;;;19.63;11.27;;;;;-5.10;94469.00;;;;7408426;19;20147;-81
2024/01/09 09:32:06;;;;;;;21.43;11.50;;;;;-5.40;94472.00;;;;7402147;19;20152;-78
2024/01/09 09:34:40;;;;;;;20.07;11.67;;;;;-5.00;94466.00;;;;7405117;19;20151;-81
2024/01/09 09:37:18;;;;;;;20.00;10.63;;;;;-4.50;94462.00;;;;7396910;19;20149;-80
2024/01/09 09:39:53;;;;;;;20.80;11.40;;;;;-4.30;94465.00;;;;7393744;19;20176;-80
2024/01/09 09:42:22;;;;;;;19.83;10.93;;;;;-4.60;94464.00;;;;7392783;19;20148;-81
2024/01/09 09:45:01;;;;;;;23.40;11.27;;;;;-4.80;94463.00;;;;7390490;19;20468;-76
2024/01/09 09:47:31;;;;;;;20.40;11.10;;;;;-4.60;94469.00;;;;7388145;19;20485;-76
2024/01/09 09:50:08;;;;;;;21.97;11.20;;;;;-4.30;94466.00;;;;7389101;19;20168;-76
2024/01/09 09:52:42;;;;;;;18.60;11.33;;;;;-4.20;94473.00;;;;7388512;19;20133;-77
2024/01/09 09:55:17;;;;;;;18.93;11.00;;;;;-3.30;94469.00;;;;7386634;19;20128;-77
2024/01/09 09:57:45;;;;;;;20.73;11.40;;;;;-3.80;94469.00;;;;7389601;19;20250;-76
2024/01/09 10:00:20;;;;;;;20.40;10.53;;;;;-4.00;94470.00;;;;7390362;19;20556;-76
2024/01/09 10:02:51;;;;;;;19.43;11.03;;;;;-4.30;94474.00;;;;7393466;19;20175;-76
2024/01/09 10:05:27;;;;;;;20.17;10.60;;;;;-4.40;94466.00;;;;7395735;19;20131;-76
2024/01/09 10:07:57;;;;;;;19.73;11.10;;;;;-3.50;94466.00;;;;7395315;19;20148;-76
2024/01/09 10:10:32;;;;;;;17.63;10.93;;;;;-4.10;94468.00;;;;7394404;19;20159;-77
2024/01/09 10:13:06;;;;;;;21.87;12.23;;;;;-3.80;94466.00;;;;7394516;19;20148;-80
2024/01/09 10:15:57;;;;;;;20.93;11.33;;;;;-3.30;94452.00;;;;7395164;19;20623;-76
2024/01/09 10:18:29;;;;;;;19.90;11.30;;;;;-3.30;94449.00;;;;7395931;19;20152;-74
2024/01/09 10:21:17;;;;;;;19.63;11.73;;;;;-3.40;94456.00;;;;7394816;19;20169;-77
2024/01/09 10:23:56;;;;;;;19.93;11.57;;;;;-4.20;94456.00;;;;7394332;19;20220;-79
2024/01/09 10:26:31;;;;;;;18.83;10.80;;;;;-3.80;94457.00;;;;7394309;19;20152;-78
2024/01/09 10:29:12;;;;;;;18.90;10.83;;;;;-4.00;94448.00;;;;7394531;19;20156;-76
2024/01/09 10:31:46;;;;;;;20.53;11.53;;;;;-2.80;94456.00;;;;7394119;19;20600;-76
2024/01/09 10:34:14;;;;;;;18.13;11.00;;;;;-4.20;94450.00;;;;7392906;19;20155;-79
2024/01/09 10:36:50;;;;;;;19.33;11.47;;;;;-3.30;94443.00;;;;7394293;19;20151;-76
2024/01/09 10:39:18;;;;;;;18.23;11.30;;;;;-2.80;94450.00;;;;7392371;19;20152;-74
2024/01/09 10:41:46;;;;;;;22.83;11.47;;;;;-2.90;94440.00;;;;7393880;19;20616;-74
2024/01/09 10:44:20;;;;;;;22.53;10.87;;;;;-3.20;94449.00;;;;7392702;19;20889;-77
2024/01/09 10:46:54;;;;;;;20.90;11.87;;;;;-2.80;94450.00;;;;7394286;19;20526;-76
2024/01/09 10:49:24;;;;;;;17.63;10.70;;;;;-3.30;94445.00;;;;7392891;19;20156;-76
2024/01/09 10:52:00;;;;;;;17.40;10.77;;;;;-3.10;94445.00;;;;7395071;19;20148;-77
2024/01/09 10:54:35;;;;;;;21.97;11.30;;;;;-3.00;94449.00;;;;7393618;19;20567;-82
2024/01/09 10:57:04;;;;;;;18.40;11.70;;;;;-2.60;94438.00;;;;7393352;19;20152;-81
2024/01/09 10:59:40;;;;;;;22.47;11.60;;;;;-2.70;94444.00;;;;7393437;19;20469;-80
2024/01/09 11:02:15;;;;;;;21.30;11.23;;;;;-2.40;94440.00;;;;7392319;19;20172;-81
2024/01/09 11:04:49;;;;;;;17.83;10.93;;;;;-2.30;94429.00;;;;7393153;19;20140;-81
2024/01/09 11:07:18;;;;;;;18.63;11.07;;;;;-1.70;94441.00;;;;7393500;19;20655;-81
2024/01/09 11:09:53;;;;;;;19.10;10.73;;;;;-1.70;94434.00;;;;7393578;19;20264;-82
2024/01/09 11:12:36;;;;;;;19.17;11.03;;;;;-1.80;94439.00;;;;7393351;19;20148;-81
2024/01/09 11:15:29;;;;;;;17.17;10.00;;;;;-2.20;94425.00;;;;7394108;19;20140;-81
2024/01/09 11:18:09;;;;;;;19.57;10.47;;;;;-1.40;94426.00;;;;7393104;19;20157;-81
2024/01/09 11:21:06;;;;;;;18.43;11.23;;;;;-2.00;94420.00;;;;7392395;19;20176;-82
2024/01/09 11:23:46;;;;;;;17.73;10.63;;;;;-2.10;94423.00;;;;7393611;19;21835;-82
2024/01/09 11:26:22;;;;;;;16.83;10.03;;;;;-2.40;94416.00;;;;7392662;19;20182;-82
2024/01/09 11:28:50;;;;;;;19.50;10.87;;;;;-2.40;94422.00;;;;7393095;19;20153;-81
2024/01/09 11:31:20;;;;;;;18.23;10.73;;;;;-1.90;94414.00;;;;7392192;19;20157;-81
2024/01/09 11:33:56;;;;;;;16.73;10.20;;;;;-1.90;94414.00;;;;7392618;19;20144;-81
2024/01/09 11:36:37;;;;;;;19.37;11.03;;;;;-1.50;94407.00;;;;7393648;19;20140;-82
2024/01/09 11:39:11;;;;;;;19.43;11.13;;;;;-1.50;94418.00;;;;7392508;19;20154;-81
2024/01/09 11:41:45;;;;;;;19.77;11.20;;;;;-2.60;94417.00;;;;7392805;19;20146;-82
2024/01/09 11:44:19;;;;;;;17.30;10.20;;;;;-2.20;94402.00;;;;7392991;19;20481;-82
2024/01/09 11:46:49;;;;;;;20.03;10.23;;;;;-2.30;94416.00;;;;7392141;19;20243;-82
2024/01/09 11:49:25;;;;;;;16.63;10.17;;;;;-1.70;94404.00;;;;7393505;19;20541;-81
2024/01/09 11:51:57;;;;;;;20.93;11.43;;;;;-1.60;94414.00;;;;7392637;19;20208;-82
2024/01/09 11:54:31;;;;;;;16.33;10.07;;;;;-2.00;94404.00;;;;7393265;19;20152;-82
2024/01/09 11:57:09;;;;;;;18.13;10.80;;;;;-2.10;94394.00;;;;7393112;19;20517;-83
2024/01/09 11:59:36;;;;;;;18.60;10.90;;;;;-2.40;94406.00;;;;7392658;19;20204;-81
2024/01/09 12:02:11;;;;;;;16.17;9.47;;;;;-1.90;94410.00;;;;7391869;19;20203;-82
2024/01/09 12:04:41;;;;;;;17.13;9.83;;;;;-2.00;94406.00;;;;7391480;19;20152;-85
2024/01/09 12:07:15;;;;;;;16.97;9.80;;;;;-1.50;94400.00;;;;7393738;19;20148;-84
2024/01/09 12:09:43;;;;;;;17.67;10.03;;;;;-1.40;94391.00;;;;7393115;19;20148;-84
2024/01/09 12:12:26;;;;;;;17.80;10.13;;;;;-2.30;94401.00;;;;7394149;19;20173;-81
2024/01/09 12:15:01;;;;;;;14.87;9.63;;;;;-1.90;94397.00;;;;7392383;19;20148;-83
2024/01/09 12:17:34;;;;;;;17.17;10.57;;;;;-1.10;94393.00;;;;7393100;19;20144;-85
2024/01/09 12:20:10;;;;;;;18.50;9.70;;;;;-1.60;94394.00;;;;7400183;19;20152;-83
2024/01/09 12:22:50;;;;;;;17.53;10.40;;;;;-1.80;94411.00;;;;7393627;19;20132;-80